sensor_id;sensor_type;location;lat;lon;timestamp;temperature;humidity
50738;DHT22;36703;48.154;17.126;2023-11-19T00:00:08;10.70;52.30
50738;DHT22;36703;48.154;17.126;2023-11-19T00:04:13;10.70;52.30
50738;DHT22;36703;48.154;17.126;2023-11-19T00:08:15;11.00;52.50
50738;DHT22;36703;48.154;17.126;2023-11-19T00:12:16;11.00;52.50
50738;DHT22;36703;48.154;17.126;2023-11-19T00:16:18;10.80;52.50
50738;DHT22;36703;48.154;17.126;2023-11-19T00:20:19;10.70;52.50
50738;DHT22;36703;48.154;17.126;2023-11-19T00:24:23;10.80;52.50
50738;DHT22;36703;48.154;17.126;2023-11-19T00:28:24;10.70;52.50
50738;DHT22;36703;48.154;17.126;2023-11-19T00:32:26;10.70;52.60
50738;DHT22;36703;48.154;17.126;2023-11-19T00:36:27;10.60;52.70
50738;DHT22;36703;48.154;17.126;2023-11-19T00:40:29;11.00;52.80
50738;DHT22;36703;48.154;17.126;2023-11-19T00:44:31;10.70;52.80
50738;DHT22;36703;48.154;17.126;2023-11-19T00:48:33;10.80;53.00
50738;DHT22;36703;48.154;17.126;2023-11-19T00:52:34;10.60;52.10
50738;DHT22;36703;48.154;17.126;2023-11-19T00:56:38;10.40;51.90
50738;DHT22;36703;48.154;17.126;2023-11-19T01:00:39;10.70;52.00
50738;DHT22;36703;48.154;17.126;2023-11-19T01:04:41;10.70;52.00
50738;DHT22;36703;48.154;17.126;2023-11-19T01:08:43;10.70;52.80
50738;DHT22;36703;48.154;17.126;2023-11-19T01:12:46;10.40;53.30
50738;DHT22;36703;48.154;17.126;2023-11-19T01:16:47;10.30;53.10
50738;DHT22;36703;48.154;17.126;2023-11-19T01:20:50;10.60;53.20
50738;DHT22;36703;48.154;17.126;2023-11-19T01:24:51;10.30;53.10
50738;DHT22;36703;48.154;17.126;2023-11-19T01:28:53;10.50;53.10
50738;DHT22;36703;48.154;17.126;2023-11-19T01:32:54;10.30;53.00
50738;DHT22;36703;48.154;17.126;2023-11-19T01:36:56;10.40;53.00
50738;DHT22;36703;48.154;17.126;2023-11-19T01:40:58;10.40;53.70
50738;DHT22;36703;48.154;17.126;2023-11-19T01:45:00;10.30;52.90
50738;DHT22;36703;48.154;17.126;2023-11-19T01:49:02;10.40;52.80
50738;DHT22;36703;48.154;17.126;2023-11-19T01:53:04;10.40;52.90
50738;DHT22;36703;48.154;17.126;2023-11-19T01:57:06;10.60;53.10
50738;DHT22;36703;48.154;17.126;2023-11-19T02:01:09;10.40;52.90
50738;DHT22;36703;48.154;17.126;2023-11-19T02:05:12;10.60;53.10
50738;DHT22;36703;48.154;17.126;2023-11-19T02:09:17;11.00;53.30
50738;DHT22;36703;48.154;17.126;2023-11-19T02:13:20;10.60;53.20
50738;DHT22;36703;48.154;17.126;2023-11-19T02:17:40;10.50;53.20
50738;DHT22;36703;48.154;17.126;2023-11-19T02:21:42;10.70;53.40
50738;DHT22;36703;48.154;17.126;2023-11-19T02:25:48;10.60;53.20
50738;DHT22;36703;48.154;17.126;2023-11-19T02:30:12;10.60;53.20
50738;DHT22;36703;48.154;17.126;2023-11-19T02:34:15;10.60;53.20
50738;DHT22;36703;48.154;17.126;2023-11-19T02:38:17;10.60;53.30
50738;DHT22;36703;48.154;17.126;2023-11-19T02:42:19;10.90;53.50
50738;DHT22;36703;48.154;17.126;2023-11-19T02:46:20;10.70;53.40
50738;DHT22;36703;48.154;17.126;2023-11-19T02:50:22;10.70;53.50
50738;DHT22;36703;48.154;17.126;2023-11-19T02:54:26;10.60;53.40
50738;DHT22;36703;48.154;17.126;2023-11-19T02:58:28;10.70;53.40
50738;DHT22;36703;48.154;17.126;2023-11-19T03:02:30;10.60;53.40
50738;DHT22;36703;48.154;17.126;2023-11-19T03:06:35;10.60;53.40
50738;DHT22;36703;48.154;17.126;2023-11-19T03:10:36;10.80;53.60
50738;DHT22;36703;48.154;17.126;2023-11-19T03:14:37;10.60;53.40
50738;DHT22;36703;48.154;17.126;2023-11-19T03:18:40;10.80;53.50
50738;DHT22;36703;48.154;17.126;2023-11-19T03:22:41;10.70;53.50
50738;DHT22;36703;48.154;17.126;2023-11-19T03:26:50;10.60;53.50
50738;DHT22;36703;48.154;17.126;2023-11-19T03:30:52;10.60;53.50
50738;DHT22;36703;48.154;17.126;2023-11-19T03:34:54;10.50;53.50
50738;DHT22;36703;48.154;17.126;2023-11-19T03:38:56;10.60;53.60
50738;DHT22;36703;48.154;17.126;2023-11-19T03:42:58;10.60;53.70
50738;DHT22;36703;48.154;17.126;2023-11-19T03:46:59;10.50;53.40
50738;DHT22;36703;48.154;17.126;2023-11-19T03:51:01;10.40;53.50
50738;DHT22;36703;48.154;17.126;2023-11-19T03:55:03;10.30;53.40
50738;DHT22;36703;48.154;17.126;2023-11-19T03:59:06;10.30;53.50
50738;DHT22;36703;48.154;17.126;2023-11-19T04:03:09;10.20;54.40
50738;DHT22;36703;48.154;17.126;2023-11-19T04:07:10;10.20;52.70
50738;DHT22;36703;48.154;17.126;2023-11-19T04:11:12;10.20;52.90
50738;DHT22;36703;48.154;17.126;2023-11-19T04:15:14;10.20;52.80
50738;DHT22;36703;48.154;17.126;2023-11-19T04:19:17;9.90;52.60
50738;DHT22;36703;48.154;17.126;2023-11-19T04:23:19;10.40;52.90
50738;DHT22;36703;48.154;17.126;2023-11-19T04:27:20;10.00;52.70
50738;DHT22;36703;48.154;17.126;2023-11-19T04:31:22;10.00;52.70
50738;DHT22;36703;48.154;17.126;2023-11-19T04:35:24;9.80;52.50
50738;DHT22;36703;48.154;17.126;2023-11-19T04:39:27;9.80;52.70
50738;DHT22;36703;48.154;17.126;2023-11-19T04:43:28;9.90;53.70
50738;DHT22;36703;48.154;17.126;2023-11-19T04:47:30;9.70;53.70
50738;DHT22;36703;48.154;17.126;2023-11-19T04:51:40;9.70;53.80
50738;DHT22;36703;48.154;17.126;2023-11-19T04:55:45;9.70;53.50
50738;DHT22;36703;48.154;17.126;2023-11-19T04:59:47;9.70;53.50
50738;DHT22;36703;48.154;17.126;2023-11-19T05:03:48;9.80;53.60
50738;DHT22;36703;48.154;17.126;2023-11-19T05:07:49;9.90;53.60
50738;DHT22;36703;48.154;17.126;2023-11-19T05:11:51;9.80;53.50
50738;DHT22;36703;48.154;17.126;2023-11-19T05:15:52;9.80;53.50
50738;DHT22;36703;48.154;17.126;2023-11-19T05:19:54;9.80;53.50
50738;DHT22;36703;48.154;17.126;2023-11-19T05:23:55;9.70;53.40
50738;DHT22;36703;48.154;17.126;2023-11-19T05:27:57;9.70;53.60
50738;DHT22;36703;48.154;17.126;2023-11-19T05:31:59;9.90;54.70
50738;DHT22;36703;48.154;17.126;2023-11-19T05:36:01;9.80;56.10
50738;DHT22;36703;48.154;17.126;2023-11-19T05:40:06;9.60;55.80
50738;DHT22;36703;48.154;17.126;2023-11-19T05:44:15;9.50;55.70
50738;DHT22;36703;48.154;17.126;2023-11-19T05:48:18;9.50;55.30
50738;DHT22;36703;48.154;17.126;2023-11-19T05:52:19;9.40;54.80
50738;DHT22;36703;48.154;17.126;2023-11-19T05:56:23;9.30;55.40
50738;DHT22;36703;48.154;17.126;2023-11-19T06:00:24;9.30;56.80
50738;DHT22;36703;48.154;17.126;2023-11-19T06:04:27;9.20;56.40
50738;DHT22;36703;48.154;17.126;2023-11-19T06:08:29;9.20;56.00
50738;DHT22;36703;48.154;17.126;2023-11-19T06:12:31;9.20;56.70
50738;DHT22;36703;48.154;17.126;2023-11-19T06:16:34;9.20;55.70
50738;DHT22;36703;48.154;17.126;2023-11-19T06:20:38;9.30;55.90
50738;DHT22;36703;48.154;17.126;2023-11-19T06:24:40;9.10;55.70
50738;DHT22;36703;48.154;17.126;2023-11-19T06:28:41;9.30;55.90
50738;DHT22;36703;48.154;17.126;2023-11-19T06:32:43;9.10;55.70
50738;DHT22;36703;48.154;17.126;2023-11-19T06:36:44;8.90;55.50
50738;DHT22;36703;48.154;17.126;2023-11-19T06:40:46;9.10;55.50
50738;DHT22;36703;48.154;17.126;2023-11-19T06:44:47;9.10;55.60
50738;DHT22;36703;48.154;17.126;2023-11-19T06:48:49;8.90;55.50
50738;DHT22;36703;48.154;17.126;2023-11-19T06:52:50;8.90;55.70
50738;DHT22;36703;48.154;17.126;2023-11-19T06:56:52;9.50;56.10
50738;DHT22;36703;48.154;17.126;2023-11-19T07:00:53;8.80;55.90
50738;DHT22;36703;48.154;17.126;2023-11-19T07:04:55;8.80;56.10
50738;DHT22;36703;48.154;17.126;2023-11-19T07:08:56;8.70;56.30
50738;DHT22;36703;48.154;17.126;2023-11-19T07:12:59;8.60;56.30
50738;DHT22;36703;48.154;17.126;2023-11-19T07:17:00;8.80;56.30
50738;DHT22;36703;48.154;17.126;2023-11-19T07:21:02;8.70;56.40
50738;DHT22;36703;48.154;17.126;2023-11-19T07:25:05;8.80;56.50
50738;DHT22;36703;48.154;17.126;2023-11-19T07:29:06;8.80;56.40
50738;DHT22;36703;48.154;17.126;2023-11-19T07:33:08;11.30;57.70
50738;DHT22;36703;48.154;17.126;2023-11-19T07:37:10;8.70;56.70
50738;DHT22;36703;48.154;17.126;2023-11-19T07:41:11;8.90;56.90
50738;DHT22;36703;48.154;17.126;2023-11-19T07:45:14;9.50;57.20
50738;DHT22;36703;48.154;17.126;2023-11-19T07:49:15;8.80;56.80
50738;DHT22;36703;48.154;17.126;2023-11-19T07:53:17;8.80;56.90
50738;DHT22;36703;48.154;17.126;2023-11-19T07:57:18;8.90;57.00
50738;DHT22;36703;48.154;17.126;2023-11-19T08:01:21;8.90;57.10
50738;DHT22;36703;48.154;17.126;2023-11-19T08:05:24;9.00;57.20
50738;DHT22;36703;48.154;17.126;2023-11-19T08:09:26;9.20;57.30
50738;DHT22;36703;48.154;17.126;2023-11-19T08:13:29;9.20;57.40
50738;DHT22;36703;48.154;17.126;2023-11-19T08:17:30;9.20;57.50
50738;DHT22;36703;48.154;17.126;2023-11-19T08:21:32;9.30;57.30
50738;DHT22;36703;48.154;17.126;2023-11-19T08:25:33;9.40;57.20
50738;DHT22;36703;48.154;17.126;2023-11-19T08:29:35;9.50;57.10
50738;DHT22;36703;48.154;17.126;2023-11-19T08:33:36;9.50;57.10
50738;DHT22;36703;48.154;17.126;2023-11-19T08:37:38;9.60;57.00
50738;DHT22;36703;48.154;17.126;2023-11-19T08:41:39;9.70;57.00
50738;DHT22;36703;48.154;17.126;2023-11-19T08:45:43;9.70;57.00
50738;DHT22;36703;48.154;17.126;2023-11-19T08:49:45;9.60;57.00
50738;DHT22;36703;48.154;17.126;2023-11-19T08:53:47;9.80;57.10
50738;DHT22;36703;48.154;17.126;2023-11-19T08:57:48;10.10;57.40
50738;DHT22;36703;48.154;17.126;2023-11-19T09:01:50;9.80;57.10
50738;DHT22;36703;48.154;17.126;2023-11-19T09:05:51;9.80;57.00
50738;DHT22;36703;48.154;17.126;2023-11-19T09:09:53;9.90;56.80
50738;DHT22;36703;48.154;17.126;2023-11-19T09:13:54;9.90;56.80
50738;DHT22;36703;48.154;17.126;2023-11-19T09:17:56;9.90;56.60
50738;DHT22;36703;48.154;17.126;2023-11-19T09:21:57;10.00;56.70
50738;DHT22;36703;48.154;17.126;2023-11-19T09:25:59;9.90;56.60
50738;DHT22;36703;48.154;17.126;2023-11-19T09:30:01;10.00;56.50
50738;DHT22;36703;48.154;17.126;2023-11-19T09:34:03;10.10;56.60
50738;DHT22;36703;48.154;17.126;2023-11-19T09:38:04;10.20;56.70
50738;DHT22;36703;48.154;17.126;2023-11-19T09:42:06;10.10;56.40
50738;DHT22;36703;48.154;17.126;2023-11-19T09:46:14;10.30;56.50
50738;DHT22;36703;48.154;17.126;2023-11-19T09:50:18;10.10;56.20
50738;DHT22;36703;48.154;17.126;2023-11-19T09:54:20;10.50;56.30
50738;DHT22;36703;48.154;17.126;2023-11-19T09:58:21;10.20;56.30
50738;DHT22;36703;48.154;17.126;2023-11-19T10:02:24;10.30;56.20
50738;DHT22;36703;48.154;17.126;2023-11-19T10:06:28;10.20;56.10
50738;DHT22;36703;48.154;17.126;2023-11-19T10:10:30;10.30;56.00
50738;DHT22;36703;48.154;17.126;2023-11-19T10:14:32;10.70;56.40
50738;DHT22;36703;48.154;17.126;2023-11-19T10:18:37;10.20;55.90
50738;DHT22;36703;48.154;17.126;2023-11-19T10:22:39;10.20;56.00
50738;DHT22;36703;48.154;17.126;2023-11-19T10:26:41;10.50;56.20
50738;DHT22;36703;48.154;17.126;2023-11-19T10:30:43;10.30;55.90
50738;DHT22;36703;48.154;17.126;2023-11-19T10:34:45;10.80;56.20
50738;DHT22;36703;48.154;17.126;2023-11-19T10:38:53;10.40;55.90
50738;DHT22;36703;48.154;17.126;2023-11-19T10:43:02;10.00;55.70
50738;DHT22;36703;48.154;17.126;2023-11-19T10:47:05;10.00;55.80
50738;DHT22;36703;48.154;17.126;2023-11-19T10:51:10;10.00;56.00
50738;DHT22;36703;48.154;17.126;2023-11-19T10:55:15;10.00;56.00
50738;DHT22;36703;48.154;17.126;2023-11-19T10:59:21;10.00;56.00
50738;DHT22;36703;48.154;17.126;2023-11-19T11:03:30;10.10;56.20
50738;DHT22;36703;48.154;17.126;2023-11-19T11:07:44;9.90;56.20
50738;DHT22;36703;48.154;17.126;2023-11-19T11:11:47;10.30;56.30
50738;DHT22;36703;48.154;17.126;2023-11-19T11:15:50;10.10;56.10
50738;DHT22;36703;48.154;17.126;2023-11-19T11:19:52;9.90;56.00
50738;DHT22;36703;48.154;17.126;2023-11-19T11:32:55;10.00;56.10
50738;DHT22;36703;48.154;17.126;2023-11-19T11:41:32;10.10;56.20
50738;DHT22;36703;48.154;17.126;2023-11-19T11:45:38;10.20;56.30
50738;DHT22;36703;48.154;17.126;2023-11-19T11:49:40;10.00;56.00
50738;DHT22;36703;48.154;17.126;2023-11-19T11:53:42;10.10;56.10
50738;DHT22;36703;48.154;17.126;2023-11-19T11:57:44;10.20;56.00
50738;DHT22;36703;48.154;17.126;2023-11-19T12:01:58;10.10;56.10
50738;DHT22;36703;48.154;17.126;2023-11-19T12:06:00;10.10;56.20
50738;DHT22;36703;48.154;17.126;2023-11-19T12:10:09;10.00;56.90
50738;DHT22;36703;48.154;17.126;2023-11-19T12:14:13;10.00;56.30
50738;DHT22;36703;48.154;17.126;2023-11-19T12:18:14;10.30;56.50
50738;DHT22;36703;48.154;17.126;2023-11-19T12:22:20;10.00;56.30
50738;DHT22;36703;48.154;17.126;2023-11-19T12:26:32;9.60;56.40
50738;DHT22;36703;48.154;17.126;2023-11-19T12:30:35;10.10;56.50
50738;DHT22;36703;48.154;17.126;2023-11-19T12:34:37;10.00;56.50
50738;DHT22;36703;48.154;17.126;2023-11-19T12:38:38;10.30;56.70
50738;DHT22;36703;48.154;17.126;2023-11-19T12:42:40;10.10;56.70
50738;DHT22;36703;48.154;17.126;2023-11-19T12:46:42;10.50;56.90
50738;DHT22;36703;48.154;17.126;2023-11-19T12:50:53;10.30;57.10
50738;DHT22;36703;48.154;17.126;2023-11-19T12:54:55;10.10;56.90
50738;DHT22;36703;48.154;17.126;2023-11-19T12:59:10;10.60;57.10
50738;DHT22;36703;48.154;17.126;2023-11-19T13:03:13;10.10;56.70
50738;DHT22;36703;48.154;17.126;2023-11-19T13:07:30;10.30;56.90
50738;DHT22;36703;48.154;17.126;2023-11-19T13:11:34;10.50;57.20
50738;DHT22;36703;48.154;17.126;2023-11-19T13:15:36;10.20;57.10
50738;DHT22;36703;48.154;17.126;2023-11-19T13:19:38;10.60;57.40
50738;DHT22;36703;48.154;17.126;2023-11-19T13:23:39;10.50;58.00
50738;DHT22;36703;48.154;17.126;2023-11-19T13:27:41;10.20;57.30
50738;DHT22;36703;48.154;17.126;2023-11-19T13:31:42;10.10;57.30
50738;DHT22;36703;48.154;17.126;2023-11-19T13:35:44;10.20;57.60
50738;DHT22;36703;48.154;17.126;2023-11-19T13:39:45;10.30;57.60
50738;DHT22;36703;48.154;17.126;2023-11-19T13:43:47;10.70;57.60
50738;DHT22;36703;48.154;17.126;2023-11-19T13:47:48;10.40;57.50
50738;DHT22;36703;48.154;17.126;2023-11-19T13:51:50;10.70;57.80
50738;DHT22;36703;48.154;17.126;2023-11-19T13:55:51;10.30;57.80
50738;DHT22;36703;48.154;17.126;2023-11-19T13:59:54;10.30;57.70
50738;DHT22;36703;48.154;17.126;2023-11-19T14:03:55;10.80;58.10
50738;DHT22;36703;48.154;17.126;2023-11-19T14:07:57;10.20;57.80
50738;DHT22;36703;48.154;17.126;2023-11-19T14:11:59;10.20;57.90
50738;DHT22;36703;48.154;17.126;2023-11-19T14:16:00;10.50;58.10
50738;DHT22;36703;48.154;17.126;2023-11-19T14:20:02;10.30;58.30
50738;DHT22;36703;48.154;17.126;2023-11-19T14:24:24;10.20;58.40
50738;DHT22;36703;48.154;17.126;2023-11-19T14:28:27;10.40;59.10
50738;DHT22;36703;48.154;17.126;2023-11-19T14:32:28;10.20;58.60
50738;DHT22;36703;48.154;17.126;2023-11-19T14:36:29;10.90;59.00
50738;DHT22;36703;48.154;17.126;2023-11-19T14:40:31;10.30;58.70
50738;DHT22;36703;48.154;17.126;2023-11-19T14:44:33;10.50;58.70
50738;DHT22;36703;48.154;17.126;2023-11-19T14:48:35;10.30;58.60
50738;DHT22;36703;48.154;17.126;2023-11-19T14:52:36;10.30;58.70
50738;DHT22;36703;48.154;17.126;2023-11-19T14:56:38;10.20;58.90
50738;DHT22;36703;48.154;17.126;2023-11-19T15:00:40;10.10;59.00
50738;DHT22;36703;48.154;17.126;2023-11-19T15:04:41;10.20;59.30
50738;DHT22;36703;48.154;17.126;2023-11-19T15:08:45;10.10;59.20
50738;DHT22;36703;48.154;17.126;2023-11-19T15:12:47;10.00;59.20
50738;DHT22;36703;48.154;17.126;2023-11-19T15:16:49;10.10;59.30
50738;DHT22;36703;48.154;17.126;2023-11-19T15:20:52;10.20;59.30
50738;DHT22;36703;48.154;17.126;2023-11-19T15:24:54;10.20;59.40
50738;DHT22;36703;48.154;17.126;2023-11-19T15:28:55;10.00;59.30
50738;DHT22;36703;48.154;17.126;2023-11-19T15:32:58;10.90;59.70
50738;DHT22;36703;48.154;17.126;2023-11-19T15:37:00;10.10;59.30
50738;DHT22;36703;48.154;17.126;2023-11-19T15:41:01;10.00;58.70
50738;DHT22;36703;48.154;17.126;2023-11-19T15:45:06;10.10;59.30
50738;DHT22;36703;48.154;17.126;2023-11-19T15:49:08;10.00;59.30
50738;DHT22;36703;48.154;17.126;2023-11-19T15:53:10;10.60;59.80
50738;DHT22;36703;48.154;17.126;2023-11-19T15:57:15;10.00;59.50
50738;DHT22;36703;48.154;17.126;2023-11-19T16:01:18;10.10;59.50
50738;DHT22;36703;48.154;17.126;2023-11-19T16:05:20;10.00;59.50
50738;DHT22;36703;48.154;17.126;2023-11-19T16:09:22;10.10;59.70
50738;DHT22;36703;48.154;17.126;2023-11-19T16:13:23;10.00;59.70
50738;DHT22;36703;48.154;17.126;2023-11-19T16:17:25;10.00;59.60
50738;DHT22;36703;48.154;17.126;2023-11-19T16:21:28;10.10;59.70
50738;DHT22;36703;48.154;17.126;2023-11-19T16:25:30;10.10;59.90
50738;DHT22;36703;48.154;17.126;2023-11-19T16:29:31;10.00;59.80
50738;DHT22;36703;48.154;17.126;2023-11-19T16:33:33;10.00;59.80
50738;DHT22;36703;48.154;17.126;2023-11-19T16:37:35;10.10;59.80
50738;DHT22;36703;48.154;17.126;2023-11-19T16:41:37;10.10;60.00
50738;DHT22;36703;48.154;17.126;2023-11-19T16:45:39;10.00;60.00
50738;DHT22;36703;48.154;17.126;2023-11-19T16:49:40;10.10;60.20
50738;DHT22;36703;48.154;17.126;2023-11-19T16:53:46;10.00;60.10
50738;DHT22;36703;48.154;17.126;2023-11-19T16:57:48;10.00;60.10
50738;DHT22;36703;48.154;17.126;2023-11-19T17:02:02;9.90;60.30
50738;DHT22;36703;48.154;17.126;2023-11-19T17:06:04;9.90;60.40
50738;DHT22;36703;48.154;17.126;2023-11-19T17:10:06;9.90;60.40
50738;DHT22;36703;48.154;17.126;2023-11-19T17:14:09;10.00;60.40
50738;DHT22;36703;48.154;17.126;2023-11-19T17:18:11;10.00;60.40
50738;DHT22;36703;48.154;17.126;2023-11-19T17:22:12;10.40;60.70
50738;DHT22;36703;48.154;17.126;2023-11-19T17:26:14;10.10;60.60
50738;DHT22;36703;48.154;17.126;2023-11-19T17:30:16;10.10;60.60
50738;DHT22;36703;48.154;17.126;2023-11-19T17:34:18;9.90;60.50
50738;DHT22;36703;48.154;17.126;2023-11-19T17:38:22;10.00;60.80
50738;DHT22;36703;48.154;17.126;2023-11-19T17:42:26;10.00;60.90
50738;DHT22;36703;48.154;17.126;2023-11-19T17:46:28;10.00;60.80
50738;DHT22;36703;48.154;17.126;2023-11-19T17:50:29;9.90;60.80
50738;DHT22;36703;48.154;17.126;2023-11-19T17:54:31;10.00;60.90
50738;DHT22;36703;48.154;17.126;2023-11-19T17:58:32;9.90;61.00
50738;DHT22;36703;48.154;17.126;2023-11-19T18:02:34;9.90;61.10
50738;DHT22;36703;48.154;17.126;2023-11-19T18:06:36;10.00;61.20
50738;DHT22;36703;48.154;17.126;2023-11-19T18:10:38;10.20;61.40
50738;DHT22;36703;48.154;17.126;2023-11-19T18:14:40;10.00;61.30
50738;DHT22;36703;48.154;17.126;2023-11-19T18:18:42;9.80;61.30
50738;DHT22;36703;48.154;17.126;2023-11-19T18:22:44;9.80;61.30
50738;DHT22;36703;48.154;17.126;2023-11-19T18:26:49;9.90;61.20
50738;DHT22;36703;48.154;17.126;2023-11-19T18:30:50;9.80;61.20
50738;DHT22;36703;48.154;17.126;2023-11-19T18:34:51;9.70;61.30
50738;DHT22;36703;48.154;17.126;2023-11-19T18:38:53;9.70;61.30
50738;DHT22;36703;48.154;17.126;2023-11-19T18:42:54;9.80;61.50
50738;DHT22;36703;48.154;17.126;2023-11-19T18:46:56;9.70;61.40
50738;DHT22;36703;48.154;17.126;2023-11-19T18:50:58;9.90;61.50
50738;DHT22;36703;48.154;17.126;2023-11-19T18:55:02;9.70;61.50
50738;DHT22;36703;48.154;17.126;2023-11-19T18:59:06;9.70;61.70
50738;DHT22;36703;48.154;17.126;2023-11-19T19:03:12;10.10;62.00
50738;DHT22;36703;48.154;17.126;2023-11-19T19:07:16;10.20;61.90
50738;DHT22;36703;48.154;17.126;2023-11-19T19:11:18;9.80;61.60
50738;DHT22;36703;48.154;17.126;2023-11-19T19:15:20;9.80;61.70
50738;DHT22;36703;48.154;17.126;2023-11-19T19:19:21;9.90;61.70
50738;DHT22;36703;48.154;17.126;2023-11-19T19:23:23;9.90;61.80
50738;DHT22;36703;48.154;17.126;2023-11-19T19:27:25;9.80;61.70
50738;DHT22;36703;48.154;17.126;2023-11-19T19:31:26;9.90;61.80
50738;DHT22;36703;48.154;17.126;2023-11-19T19:35:28;10.10;61.70
50738;DHT22;36703;48.154;17.126;2023-11-19T19:39:31;9.80;61.60
50738;DHT22;36703;48.154;17.126;2023-11-19T19:43:33;9.80;61.70
50738;DHT22;36703;48.154;17.126;2023-11-19T19:47:36;9.90;62.80
50738;DHT22;36703;48.154;17.126;2023-11-19T19:51:38;10.00;61.90
50738;DHT22;36703;48.154;17.126;2023-11-19T19:55:39;9.80;62.20
50738;DHT22;36703;48.154;17.126;2023-11-19T19:59:41;10.00;62.50
50738;DHT22;36703;48.154;17.126;2023-11-19T20:03:43;9.80;62.20
50738;DHT22;36703;48.154;17.126;2023-11-19T20:07:45;9.80;62.00
50738;DHT22;36703;48.154;17.126;2023-11-19T20:11:48;9.90;62.20
50738;DHT22;36703;48.154;17.126;2023-11-19T20:15:52;10.20;62.40
50738;DHT22;36703;48.154;17.126;2023-11-19T20:19:54;10.20;62.80
50738;DHT22;36703;48.154;17.126;2023-11-19T20:23:55;9.90;62.40
50738;DHT22;36703;48.154;17.126;2023-11-19T20:27:57;9.90;62.20
50738;DHT22;36703;48.154;17.126;2023-11-19T20:31:59;10.10;62.50
50738;DHT22;36703;48.154;17.126;2023-11-19T20:36:01;10.40;63.50
50738;DHT22;36703;48.154;17.126;2023-11-19T20:40:03;9.90;62.40
50738;DHT22;36703;48.154;17.126;2023-11-19T20:44:08;9.90;62.30
50738;DHT22;36703;48.154;17.126;2023-11-19T20:48:09;10.00;62.30
50738;DHT22;36703;48.154;17.126;2023-11-19T20:52:13;10.20;62.40
50738;DHT22;36703;48.154;17.126;2023-11-19T20:56:14;10.00;63.00
50738;DHT22;36703;48.154;17.126;2023-11-19T21:00:16;10.20;62.60
50738;DHT22;36703;48.154;17.126;2023-11-19T21:04:19;9.90;62.30
50738;DHT22;36703;48.154;17.126;2023-11-19T21:08:22;9.90;62.30
50738;DHT22;36703;48.154;17.126;2023-11-19T21:12:23;10.00;62.20
50738;DHT22;36703;48.154;17.126;2023-11-19T21:16:25;10.20;62.30
50738;DHT22;36703;48.154;17.126;2023-11-19T21:20:27;10.20;62.20
50738;DHT22;36703;48.154;17.126;2023-11-19T21:24:28;10.20;62.20
50738;DHT22;36703;48.154;17.126;2023-11-19T21:28:30;10.20;62.10
50738;DHT22;36703;48.154;17.126;2023-11-19T21:32:34;10.50;62.00
50738;DHT22;36703;48.154;17.126;2023-11-19T21:36:35;10.10;62.20
50738;DHT22;36703;48.154;17.126;2023-11-19T21:40:37;10.30;62.10
50738;DHT22;36703;48.154;17.126;2023-11-19T21:44:38;10.30;62.10
50738;DHT22;36703;48.154;17.126;2023-11-19T21:48:40;10.10;62.00
50738;DHT22;36703;48.154;17.126;2023-11-19T21:52:42;10.30;61.90
50738;DHT22;36703;48.154;17.126;2023-11-19T21:56:43;10.20;61.90
50738;DHT22;36703;48.154;17.126;2023-11-19T22:00:45;10.60;62.30
50738;DHT22;36703;48.154;17.126;2023-11-19T22:04:46;10.30;62.20
50738;DHT22;36703;48.154;17.126;2023-11-19T22:08:48;10.10;62.20
50738;DHT22;36703;48.154;17.126;2023-11-19T22:12:49;10.10;62.00
50738;DHT22;36703;48.154;17.126;2023-11-19T22:16:51;10.10;61.90
50738;DHT22;36703;48.154;17.126;2023-11-19T22:20:52;10.30;61.90
50738;DHT22;36703;48.154;17.126;2023-11-19T22:24:54;10.10;62.00
50738;DHT22;36703;48.154;17.126;2023-11-19T22:28:55;10.40;62.00
50738;DHT22;36703;48.154;17.126;2023-11-19T22:32:57;10.20;62.00
50738;DHT22;36703;48.154;17.126;2023-11-19T22:36:59;10.10;62.10
50738;DHT22;36703;48.154;17.126;2023-11-19T22:41:00;10.30;62.10
50738;DHT22;36703;48.154;17.126;2023-11-19T22:45:02;10.10;62.10
50738;DHT22;36703;48.154;17.126;2023-11-19T22:49:04;10.00;62.00
50738;DHT22;36703;48.154;17.126;2023-11-19T22:53:05;10.50;62.40
50738;DHT22;36703;48.154;17.126;2023-11-19T22:57:07;10.10;62.10
50738;DHT22;36703;48.154;17.126;2023-11-19T23:01:08;10.20;62.50
50738;DHT22;36703;48.154;17.126;2023-11-19T23:05:11;10.10;62.40
50738;DHT22;36703;48.154;17.126;2023-11-19T23:09:12;10.20;62.50
50738;DHT22;36703;48.154;17.126;2023-11-19T23:13:15;10.00;62.80
50738;DHT22;36703;48.154;17.126;2023-11-19T23:17:16;10.10;63.60
50738;DHT22;36703;48.154;17.126;2023-11-19T23:21:19;10.20;64.10
50738;DHT22;36703;48.154;17.126;2023-11-19T23:25:20;10.30;64.60
50738;DHT22;36703;48.154;17.126;2023-11-19T23:29:22;10.00;64.50
50738;DHT22;36703;48.154;17.126;2023-11-19T23:33:26;9.90;64.80
50738;DHT22;36703;48.154;17.126;2023-11-19T23:37:27;9.90;64.80
50738;DHT22;36703;48.154;17.126;2023-11-19T23:41:29;9.80;65.00
50738;DHT22;36703;48.154;17.126;2023-11-19T23:45:30;9.70;65.30
50738;DHT22;36703;48.154;17.126;2023-11-19T23:49:32;9.80;65.80
50738;DHT22;36703;48.154;17.126;2023-11-19T23:53:33;9.90;65.90
50738;DHT22;36703;48.154;17.126;2023-11-19T23:57:35;9.90;66.00
